Time;durP1;ratioP1;P1;durP2;ratioP2;P2;SDS_P1;SDS_P2;PMS_P1;PMS_P2;Temp;Humidity;BMP_temperature;BMP_pressure;BME280_temperature;BME280_humidity;BME280_pressure;Samples;Min_cycle;Max_cycle;Signal;HPM_P1;HPM_P2
2021/12/11 00:00:15;;;;;;;25.50;16.80;;;;;;;;;;5117604;28;20012;-67
2021/12/11 00:02:42;;;;;;;26.80;17.50;;;;;;;;;;5125687;28;20039;-67
2021/12/11 00:05:08;;;;;;;33.03;20.43;;;;;;;;;;5104903;28;20024;-66
2021/12/11 00:07:34;;;;;;;30.80;19.57;;;;;;;;;;5094450;28;20042;-66
2021/12/11 00:10:04;;;;;;;27.23;16.73;;;;;;;;;;5131718;28;20101;-68
2021/12/11 00:12:31;;;;;;;25.90;15.90;;;;;;;;;;5131224;28;20514;-67
2021/12/11 00:15:08;;;;;;;24.87;14.73;;;;;;;;;;5113035;28;20471;-66
2021/12/11 00:17:34;;;;;;;25.47;15.77;;;;;;;;;;5128911;28;20547;-66
2021/12/11 00:20:00;;;;;;;27.60;17.17;;;;;;;;;;5110903;28;20027;-66
2021/12/11 00:22:27;;;;;;;24.27;14.63;;;;;;;;;;5122778;28;20027;-66
2021/12/11 00:24:56;;;;;;;22.70;14.90;;;;;;;;;;5113071;28;20030;-66
2021/12/11 00:27:23;;;;;;;26.90;15.80;;;;;;;;;;5126821;28;20499;-67
2021/12/11 00:29:49;;;;;;;27.67;15.67;;;;;;;;;;5105441;28;20015;-66
2021/12/11 00:32:31;;;;;;;27.37;15.90;;;;;;;;;;5109580;27;20386;-66
2021/12/11 00:34:59;;;;;;;25.30;14.77;;;;;;;;;;5111971;27;20383;-67
2021/12/11 00:37:26;;;;;;;23.43;14.43;;;;;;;;;;5116001;27;20015;-67
2021/12/11 00:39:53;;;;;;;22.83;13.00;;;;;;;;;;5115628;27;20109;-67
2021/12/11 00:42:21;;;;;;;22.57;13.33;;;;;;;;;;5134439;27;20046;-67
2021/12/11 00:44:48;;;;;;;21.53;12.57;;;;;;;;;;5116822;27;20023;-67
2021/12/11 00:47:15;;;;;;;21.90;13.30;;;;;;;;;;5116365;27;20025;-68
2021/12/11 00:49:45;;;;;;;21.17;13.07;;;;;;;;;;5134835;27;20130;-67
2021/12/11 00:52:10;;;;;;;23.43;13.77;;;;;;;;;;5115624;27;20018;-67
2021/12/11 00:54:39;;;;;;;21.37;13.47;;;;;;;;;;5134845;27;20386;-67
2021/12/11 00:57:04;;;;;;;20.30;13.10;;;;;;;;;;5134082;27;20018;-67
2021/12/11 00:59:30;;;;;;;19.43;12.50;;;;;;;;;;5113599;27;20011;-67
2021/12/11 01:01:59;;;;;;;25.40;14.17;;;;;;;;;;5097973;27;20039;-67
2021/12/11 01:04:30;;;;;;;26.43;14.03;;;;;;;;;;5133713;27;20107;-67
2021/12/11 01:06:57;;;;;;;22.33;13.53;;;;;;;;;;5135177;27;20073;-68
2021/12/11 01:09:22;;;;;;;24.93;13.67;;;;;;;;;;5115861;27;20497;-67
2021/12/11 01:11:50;;;;;;;24.63;12.67;;;;;;;;;;5134569;27;20046;-67
2021/12/11 01:14:30;;;;;;;24.57;12.73;;;;;;;;;;5115805;27;20031;-67
2021/12/11 01:17:02;;;;;;;20.57;13.47;;;;;;;;;;5112185;27;20023;-67
2021/12/11 01:19:28;;;;;;;22.07;12.77;;;;;;;;;;5130191;27;20106;-66
2021/12/11 01:21:59;;;;;;;19.67;12.17;;;;;;;;;;5133598;27;20411;-67
2021/12/11 01:24:41;;;;;;;23.73;12.73;;;;;;;;;;5126872;27;20035;-67
2021/12/11 01:27:06;;;;;;;21.87;13.40;;;;;;;;;;5133285;27;20038;-66
2021/12/11 01:29:32;;;;;;;23.47;12.43;;;;;;;;;;5130226;27;20114;-66
2021/12/11 01:31:58;;;;;;;20.63;12.37;;;;;;;;;;5115144;27;20386;-66
2021/12/11 01:34:24;;;;;;;17.57;11.17;;;;;;;;;;5132236;27;20086;-66
2021/12/11 01:36:50;;;;;;;19.53;11.30;;;;;;;;;;5116089;27;20122;-67
2021/12/11 01:39:17;;;;;;;19.87;11.87;;;;;;;;;;5133266;27;20019;-66
2021/12/11 01:41:44;;;;;;;20.67;11.10;;;;;;;;;;5133727;27;20100;-67
2021/12/11 01:44:15;;;;;;;16.93;11.03;;;;;;;;;;5132169;27;20301;-66
2021/12/11 01:46:41;;;;;;;19.60;11.07;;;;;;;;;;5113584;27;20495;-67
2021/12/11 01:49:11;;;;;;;21.27;12.07;;;;;;;;;;5098782;27;20074;-67
2021/12/11 01:51:36;;;;;;;19.87;11.70;;;;;;;;;;5132281;27;20027;-67
2021/12/11 01:54:13;;;;;;;22.70;12.30;;;;;;;;;;5134040;27;20118;-66
2021/12/11 01:56:41;;;;;;;20.20;12.03;;;;;;;;;;5130899;27;20019;-67
2021/12/11 01:59:09;;;;;;;17.93;11.57;;;;;;;;;;5112606;27;20037;-68
2021/12/11 02:01:46;;;;;;;20.20;12.27;;;;;;;;;;5131819;27;20062;-67
2021/12/11 02:04:13;;;;;;;19.93;11.57;;;;;;;;;;5114406;27;20023;-67
2021/12/11 02:06:40;;;;;;;20.57;11.90;;;;;;;;;;5133093;27;20051;-67
2021/12/11 02:09:18;;;;;;;20.17;11.37;;;;;;;;;;5133522;27;20019;-67
2021/12/11 02:11:44;;;;;;;20.53;11.37;;;;;;;;;;5133675;27;20022;-68
2021/12/11 02:14:11;;;;;;;20.97;11.63;;;;;;;;;;5098449;27;20476;-67
2021/12/11 02:16:43;;;;;;;17.67;11.20;;;;;;;;;;5130371;27;20123;-67
2021/12/11 02:19:31;;;;;;;22.43;11.73;;;;;;;;;;5133170;27;20015;-67
2021/12/11 02:22:05;;;;;;;21.33;11.60;;;;;;;;;;5133838;27;20050;-68
2021/12/11 02:24:33;;;;;;;20.00;11.82;;;;;;;;;;5133328;27;20080;-67
2021/12/11 02:26:58;;;;;;;18.70;10.97;;;;;;;;;;5113687;27;20019;-67
2021/12/11 02:29:33;;;;;;;21.50;11.53;;;;;;;;;;5110787;27;20379;-67
2021/12/11 02:32:01;;;;;;;22.95;12.65;;;;;;;;;;5132584;27;20023;-68
2021/12/11 02:34:29;;;;;;;21.90;12.27;;;;;;;;;;5132241;27;20031;-68
2021/12/11 02:37:18;;;;;;;19.50;11.97;;;;;;;;;;5115276;27;20015;-67
2021/12/11 02:39:50;;;;;;;20.73;12.70;;;;;;;;;;5105270;27;20065;-68
2021/12/11 02:42:28;;;;;;;22.60;12.73;;;;;;;;;;5114489;27;20480;-67
2021/12/11 02:44:56;;;;;;;26.37;13.70;;;;;;;;;;5133145;27;20440;-67
2021/12/11 02:47:21;;;;;;;22.53;12.50;;;;;;;;;;5113927;27;20026;-67
2021/12/11 02:49:56;;;;;;;21.30;13.53;;;;;;;;;;5112832;27;20019;-67
2021/12/11 02:52:24;;;;;;;21.30;12.90;;;;;;;;;;5122997;27;20099;-67
2021/12/11 02:54:59;;;;;;;20.87;12.97;;;;;;;;;;5105249;27;20278;-67
2021/12/11 02:57:33;;;;;;;21.23;12.80;;;;;;;;;;5113543;27;20019;-66
2021/12/11 03:00:12;;;;;;;17.23;10.25;;;;;;;;;;5128462;27;20038;-67
2021/12/11 03:02:43;;;;;;;22.93;12.57;;;;;;;;;;5113733;27;20503;-67
2021/12/11 03:05:11;;;;;;;20.77;12.40;;;;;;;;;;5130231;27;20027;-67
2021/12/11 03:07:39;;;;;;;23.13;12.80;;;;;;;;;;5132507;27;20034;-67
2021/12/11 03:10:07;;;;;;;24.70;14.97;;;;;;;;;;5114118;28;20030;-68
2021/12/11 03:12:32;;;;;;;29.87;16.97;;;;;;;;;;5113485;27;20023;-67
2021/12/11 03:14:58;;;;;;;32.47;20.63;;;;;;;;;;5114636;27;20012;-67
2021/12/11 03:17:25;;;;;;;32.83;20.30;;;;;;;;;;5113216;28;20020;-67
2021/12/11 03:19:52;;;;;;;29.50;17.27;;;;;;;;;;5132007;27;20016;-67
2021/12/11 03:22:20;;;;;;;27.27;15.87;;;;;;;;;;5132433;27;20019;-67
2021/12/11 03:24:45;;;;;;;25.20;15.47;;;;;;;;;;5131802;27;20026;-68
2021/12/11 03:27:10;;;;;;;20.43;13.23;;;;;;;;;;5132329;28;20031;-67
2021/12/11 03:29:36;;;;;;;20.53;12.77;;;;;;;;;;5106622;28;20019;-67
2021/12/11 03:32:03;;;;;;;20.93;13.30;;;;;;;;;;5130044;28;20063;-67
2021/12/11 03:34:29;;;;;;;17.97;11.33;;;;;;;;;;5113122;28;20034;-67
2021/12/11 03:36:55;;;;;;;20.33;10.00;;;;;;;;;;5113832;28;20015;-67
2021/12/11 03:39:22;;;;;;;17.33;10.33;;;;;;;;;;5129865;28;20026;-68
2021/12/11 03:41:48;;;;;;;18.43;10.77;;;;;;;;;;5117739;28;20015;-67
2021/12/11 03:44:14;;;;;;;19.97;10.40;;;;;;;;;;5111194;28;20054;-67
2021/12/11 03:46:40;;;;;;;17.93;11.03;;;;;;;;;;5132042;28;20457;-67
2021/12/11 03:49:07;;;;;;;17.57;10.27;;;;;;;;;;5113991;28;20066;-67
2021/12/11 03:51:35;;;;;;;17.33;11.17;;;;;;;;;;5131385;28;20068;-67
2021/12/11 03:54:01;;;;;;;19.60;11.00;;;;;;;;;;5113493;28;20487;-67
2021/12/11 03:56:26;;;;;;;19.93;11.13;;;;;;;;;;5112766;28;20030;-67
2021/12/11 03:58:52;;;;;;;22.57;11.37;;;;;;;;;;5129115;28;20023;-68
2021/12/11 04:01:24;;;;;;;21.37;11.20;;;;;;;;;;5126021;28;20026;-68
2021/12/11 04:03:51;;;;;;;17.10;10.10;;;;;;;;;;5112888;28;20047;-67
2021/12/11 04:06:17;;;;;;;19.97;10.70;;;;;;;;;;5132666;27;20023;-67
2021/12/11 04:08:43;;;;;;;18.73;10.33;;;;;;;;;;5117241;27;20027;-66
2021/12/11 04:11:10;;;;;;;21.30;10.53;;;;;;;;;;5100438;27;20058;-67
2021/12/11 04:13:36;;;;;;;20.27;10.30;;;;;;;;;;5135945;27;20027;-67
2021/12/11 04:16:01;;;;;;;16.80;9.50;;;;;;;;;;5116707;27;20115;-67
2021/12/11 04:18:27;;;;;;;19.47;10.33;;;;;;;;;;5116395;27;20043;-68
2021/12/11 04:20:52;;;;;;;14.97;9.50;;;;;;;;;;5117086;27;20406;-68
2021/12/11 04:23:19;;;;;;;15.67;9.70;;;;;;;;;;5135378;27;20102;-67
2021/12/11 04:25:45;;;;;;;17.87;9.07;;;;;;;;;;5135380;27;20023;-67
2021/12/11 04:28:10;;;;;;;15.97;9.10;;;;;;;;;;5116008;27;20121;-68
2021/12/11 04:30:36;;;;;;;14.87;9.27;;;;;;;;;;5129534;27;20110;-67
2021/12/11 04:33:02;;;;;;;16.57;8.73;;;;;;;;;;5099029;27;20034;-67
2021/12/11 04:35:29;;;;;;;18.33;9.90;;;;;;;;;;5116182;27;20027;-67
2021/12/11 04:37:55;;;;;;;17.53;9.83;;;;;;;;;;5099656;27;20054;-67
2021/12/11 04:40:23;;;;;;;15.57;8.80;;;;;;;;;;5116626;27;20059;-68
2021/12/11 04:45:22;;;;;;;17.87;10.47;;;;;;;;;;5135180;27;20437;-67
2021/12/11 04:47:54;;;;;;;18.70;10.17;;;;;;;;;;5134864;27;20026;-68
2021/12/11 04:50:29;;;;;;;18.53;10.67;;;;;;;;;;5100764;27;20028;-67
2021/12/11 04:52:55;;;;;;;18.90;9.98;;;;;;;;;;5116537;27;20023;-68
2021/12/11 05:00:33;;;;;;;15.37;9.63;;;;;;;;;;5131196;27;20011;-67
2021/12/11 05:10:31;;;;;;;16.20;10.53;;;;;;;;;;5128199;27;20027;-67
2021/12/11 05:12:57;;;;;;;17.20;9.38;;;;;;;;;;5134397;27;20022;-67
2021/12/11 05:15:23;;;;;;;17.40;9.33;;;;;;;;;;5116123;27;20031;-67
2021/12/11 05:17:49;;;;;;;12.83;8.43;;;;;;;;;;5134191;27;20008;-68
2021/12/11 05:20:16;;;;;;;17.13;9.67;;;;;;;;;;5134253;27;20094;-67
2021/12/11 05:22:41;;;;;;;13.97;8.00;;;;;;;;;;5132661;27;20106;-67
2021/12/11 05:25:07;;;;;;;13.63;8.27;;;;;;;;;;5115425;27;20047;-68
2021/12/11 05:27:33;;;;;;;12.50;7.47;;;;;;;;;;5134180;27;20055;-67
2021/12/11 05:29:59;;;;;;;12.67;7.67;;;;;;;;;;5128336;27;20104;-67
2021/12/11 05:32:25;;;;;;;13.20;8.10;;;;;;;;;;5133826;27;20051;-67
2021/12/11 05:34:51;;;;;;;11.77;6.87;;;;;;;;;;5114892;27;20085;-68
2021/12/11 05:37:17;;;;;;;14.67;8.07;;;;;;;;;;5115622;27;20019;-67
2021/12/11 05:39:42;;;;;;;14.00;7.50;;;;;;;;;;5133925;27;20033;-68
2021/12/11 05:42:08;;;;;;;12.43;7.53;;;;;;;;;;5116174;27;20026;-68
2021/12/11 05:44:33;;;;;;;13.03;8.00;;;;;;;;;;5130700;27;20490;-68
2021/12/11 05:46:59;;;;;;;13.97;7.43;;;;;;;;;;5115411;27;20043;-66
2021/12/11 05:49:27;;;;;;;12.30;7.60;;;;;;;;;;5129223;27;20475;-66
2021/12/11 05:51:52;;;;;;;14.03;7.30;;;;;;;;;;5134279;27;20027;-67
2021/12/11 05:54:22;;;;;;;15.53;8.40;;;;;;;;;;5097976;27;20116;-68
2021/12/11 05:56:48;;;;;;;15.57;9.03;;;;;;;;;;5132183;27;20489;-67
2021/12/11 05:59:14;;;;;;;13.43;8.17;;;;;;;;;;5111502;27;20023;-67
2021/12/11 06:01:42;;;;;;;13.97;8.23;;;;;;;;;;5114554;27;20015;-66
2021/12/11 06:04:09;;;;;;;13.93;8.80;;;;;;;;;;5114586;27;20484;-68
2021/12/11 06:06:35;;;;;;;11.87;7.80;;;;;;;;;;5114815;27;20462;-67
2021/12/11 06:09:02;;;;;;;14.13;8.03;;;;;;;;;;5132991;27;20027;-68
2021/12/11 06:11:28;;;;;;;15.37;8.20;;;;;;;;;;5133743;27;20098;-67
2021/12/11 06:13:53;;;;;;;14.57;7.47;;;;;;;;;;5115074;27;20547;-67
2021/12/11 06:16:18;;;;;;;13.43;7.17;;;;;;;;;;5096145;27;20023;-67
2021/12/11 06:18:45;;;;;;;15.17;8.17;;;;;;;;;;5111332;28;20383;-67
2021/12/11 06:21:10;;;;;;;13.33;7.83;;;;;;;;;;5113516;28;20512;-67
2021/12/11 06:23:35;;;;;;;13.17;7.90;;;;;;;;;;5126723;27;20049;-68
2021/12/11 06:26:01;;;;;;;12.10;7.43;;;;;;;;;;5127198;27;20061;-66
2021/12/11 06:28:26;;;;;;;12.47;8.13;;;;;;;;;;5096443;27;20502;-65
2021/12/11 06:30:54;;;;;;;12.63;7.37;;;;;;;;;;5110434;27;20463;-65
2021/12/11 06:33:21;;;;;;;14.10;8.40;;;;;;;;;;5113857;27;20058;-66
2021/12/11 06:35:51;;;;;;;12.40;7.90;;;;;;;;;;5113791;27;20022;-66
2021/12/11 06:38:18;;;;;;;12.40;8.13;;;;;;;;;;5113697;27;20019;-66
2021/12/11 06:40:45;;;;;;;13.93;7.87;;;;;;;;;;5114179;27;20019;-66
2021/12/11 06:43:10;;;;;;;12.77;7.97;;;;;;;;;;5133196;27;20387;-65
2021/12/11 06:45:37;;;;;;;13.53;7.43;;;;;;;;;;5132607;27;20031;-66
2021/12/11 06:48:02;;;;;;;13.53;7.37;;;;;;;;;;5103957;27;20034;-67
2021/12/11 06:50:27;;;;;;;11.70;7.60;;;;;;;;;;5131748;27;20042;-66
2021/12/11 06:52:53;;;;;;;12.10;7.50;;;;;;;;;;5133075;27;20451;-67
2021/12/11 06:55:19;;;;;;;12.97;7.93;;;;;;;;;;5114490;27;20371;-65
2021/12/11 06:57:45;;;;;;;11.00;6.73;;;;;;;;;;5132369;27;20390;-65
2021/12/11 07:00:12;;;;;;;11.57;6.50;;;;;;;;;;5125362;27;20023;-65
2021/12/11 07:02:37;;;;;;;11.00;7.20;;;;;;;;;;5132226;27;20047;-65
2021/12/11 07:05:03;;;;;;;11.60;7.80;;;;;;;;;;5113301;27;20027;-65
2021/12/11 07:07:33;;;;;;;13.03;7.63;;;;;;;;;;5133169;27;20439;-65
2021/12/11 07:09:59;;;;;;;12.50;8.07;;;;;;;;;;5130009;27;20391;-65
2021/12/11 07:12:24;;;;;;;15.00;8.40;;;;;;;;;;5091512;27;20088;-66
2021/12/11 07:14:51;;;;;;;14.73;8.30;;;;;;;;;;5132877;27;20015;-65
2021/12/11 07:17:16;;;;;;;13.33;7.70;;;;;;;;;;5130068;27;20023;-65
2021/12/11 07:19:42;;;;;;;13.83;8.03;;;;;;;;;;5131697;27;20486;-65
2021/12/11 07:22:07;;;;;;;13.87;8.27;;;;;;;;;;5131419;27;20023;-65
2021/12/11 07:24:35;;;;;;;13.47;8.03;;;;;;;;;;5114357;27;20042;-65
2021/12/11 07:27:02;;;;;;;14.03;8.23;;;;;;;;;;5114503;27;20568;-65
2021/12/11 07:29:27;;;;;;;14.87;8.40;;;;;;;;;;5129602;27;20027;-65
2021/12/11 07:31:53;;;;;;;11.80;7.23;;;;;;;;;;5112025;28;20031;-65
2021/12/11 07:34:19;;;;;;;16.83;8.07;;;;;;;;;;5127717;28;20713;-65
2021/12/11 07:36:45;;;;;;;13.63;7.43;;;;;;;;;;5131629;27;20031;-65
2021/12/11 07:39:11;;;;;;;13.40;7.20;;;;;;;;;;5131654;28;20027;-65
2021/12/11 07:41:37;;;;;;;11.50;6.93;;;;;;;;;;5133121;27;20072;-65
2021/12/11 07:44:02;;;;;;;13.30;7.53;;;;;;;;;;5116646;27;20031;-64
2021/12/11 07:46:29;;;;;;;13.53;7.87;;;;;;;;;;5121658;27;20023;-67
2021/12/11 07:48:54;;;;;;;11.50;7.00;;;;;;;;;;5109174;27;20539;-65
2021/12/11 07:51:20;;;;;;;9.97;6.67;;;;;;;;;;5117784;27;20115;-65
2021/12/11 07:53:46;;;;;;;14.67;7.83;;;;;;;;;;5135302;27;20034;-65
2021/12/11 07:56:11;;;;;;;12.30;8.20;;;;;;;;;;5117290;27;20109;-65
2021/12/11 07:58:36;;;;;;;14.87;7.77;;;;;;;;;;5113750;27;20027;-65
2021/12/11 08:01:04;;;;;;;13.23;7.87;;;;;;;;;;5097174;27;20066;-65
2021/12/11 08:03:30;;;;;;;13.43;7.40;;;;;;;;;;5135677;27;20347;-65
2021/12/11 08:05:56;;;;;;;13.80;8.47;;;;;;;;;;5135158;27;20048;-65
2021/12/11 08:08:22;;;;;;;13.70;8.70;;;;;;;;;;5111549;27;20566;-65
2021/12/11 08:10:50;;;;;;;14.40;8.97;;;;;;;;;;5135688;27;20019;-65
2021/12/11 08:13:15;;;;;;;13.37;9.23;;;;;;;;;;5135439;27;20464;-65
2021/12/11 08:15:41;;;;;;;13.93;8.70;;;;;;;;;;5116610;27;20027;-65
2021/12/11 08:18:08;;;;;;;12.87;7.23;;;;;;;;;;5134063;27;20019;-65
2021/12/11 08:20:34;;;;;;;11.87;6.90;;;;;;;;;;5135061;27;20019;-65
2021/12/11 08:23:00;;;;;;;11.90;6.83;;;;;;;;;;5100359;27;20023;-65
2021/12/11 08:25:26;;;;;;;11.20;6.97;;;;;;;;;;5110754;28;20020;-65
2021/12/11 08:27:52;;;;;;;10.63;7.33;;;;;;;;;;5130272;27;20031;-65
2021/12/11 08:30:18;;;;;;;11.47;7.07;;;;;;;;;;5129316;27;20030;-65
2021/12/11 08:32:43;;;;;;;13.17;7.60;;;;;;;;;;5115719;27;20027;-65
2021/12/11 08:35:10;;;;;;;16.43;10.23;;;;;;;;;;5133545;27;20553;-65
2021/12/11 08:37:36;;;;;;;14.17;8.53;;;;;;;;;;5134674;27;20043;-65
2021/12/11 08:40:01;;;;;;;11.40;7.90;;;;;;;;;;5116551;27;20055;-65
2021/12/11 08:42:27;;;;;;;12.67;7.90;;;;;;;;;;5116453;27;20027;-69
2021/12/11 08:44:59;;;;;;;12.63;8.00;;;;;;;;;;5134793;27;20087;-69
2021/12/11 08:47:25;;;;;;;14.80;9.00;;;;;;;;;;5134709;27;20158;-69
2021/12/11 08:49:51;;;;;;;14.80;9.33;;;;;;;;;;5095847;28;20479;-69
2021/12/11 08:52:18;;;;;;;14.80;8.67;;;;;;;;;;5113589;27;20023;-69
2021/12/11 08:54:44;;;;;;;14.20;9.50;;;;;;;;;;5135309;27;20047;-69
2021/12/11 08:57:10;;;;;;;15.57;9.23;;;;;;;;;;5115635;27;20046;-69
2021/12/11 08:59:38;;;;;;;15.20;9.67;;;;;;;;;;5125694;27;20076;-69
2021/12/11 09:02:12;;;;;;;17.03;9.77;;;;;;;;;;5109906;28;20047;-69
2021/12/11 09:04:45;;;;;;;17.50;10.43;;;;;;;;;;5110657;28;20058;-69
2021/12/11 09:07:17;;;;;;;16.97;10.40;;;;;;;;;;5113790;28;20531;-69
2021/12/11 09:09:42;;;;;;;16.83;11.17;;;;;;;;;;5113407;28;20028;-69
2021/12/11 09:12:10;;;;;;;17.00;11.33;;;;;;;;;;5113255;28;20058;-69
2021/12/11 09:14:41;;;;;;;14.87;9.87;;;;;;;;;;5094965;28;20019;-69
2021/12/11 09:17:09;;;;;;;16.43;9.77;;;;;;;;;;5095756;28;20417;-69
2021/12/11 09:19:40;;;;;;;14.73;8.90;;;;;;;;;;5095544;28;20027;-69
2021/12/11 09:22:25;;;;;;;15.17;9.73;;;;;;;;;;5113407;28;20019;-69
2021/12/11 09:24:55;;;;;;;12.80;9.30;;;;;;;;;;5078624;28;20035;-69
2021/12/11 09:27:43;;;;;;;16.27;9.70;;;;;;;;;;5112907;28;20108;-68
2021/12/11 09:30:17;;;;;;;15.43;10.27;;;;;;;;;;5087688;28;20016;-68
2021/12/11 09:32:45;;;;;;;11.02;7.72;;;;;;;;;;5107486;28;20016;-68
2021/12/11 09:35:21;;;;;;;17.37;10.53;;;;;;;;;;5094773;28;20119;-68
2021/12/11 09:37:48;;;;;;;14.10;9.73;;;;;;;;;;5114006;28;20016;-69
2021/12/11 09:40:17;;;;;;;15.07;9.47;;;;;;;;;;5094379;28;20020;-69
2021/12/11 09:42:42;;;;;;;15.43;9.77;;;;;;;;;;5074457;28;20123;-68
2021/12/11 09:45:12;;;;;;;17.27;10.90;;;;;;;;;;5079238;28;20523;-69
2021/12/11 09:47:41;;;;;;;16.70;10.50;;;;;;;;;;5096172;27;20031;-69
2021/12/11 09:50:11;;;;;;;16.27;11.87;;;;;;;;;;5111689;27;20049;-69
2021/12/11 09:52:38;;;;;;;18.60;11.97;;;;;;;;;;5112216;28;20024;-68
2021/12/11 09:55:08;;;;;;;17.00;11.23;;;;;;;;;;5112705;28;20028;-69
2021/12/11 09:57:35;;;;;;;16.90;11.80;;;;;;;;;;5112366;28;20046;-69
2021/12/11 10:00:04;;;;;;;18.70;11.63;;;;;;;;;;5088608;28;20464;-69
2021/12/11 10:02:31;;;;;;;18.80;11.83;;;;;;;;;;5109662;27;20043;-69
2021/12/11 10:05:03;;;;;;;22.27;13.40;;;;;;;;;;5112504;27;20034;-69
2021/12/11 10:07:36;;;;;;;22.70;13.77;;;;;;;;;;5132713;27;20019;-69
2021/12/11 10:10:08;;;;;;;23.27;13.00;;;;;;;;;;5131175;27;20091;-68
2021/12/11 10:12:35;;;;;;;19.77;13.83;;;;;;;;;;5112336;27;20454;-68
2021/12/11 10:15:09;;;;;;;22.60;14.37;;;;;;;;;;5133513;27;20023;-68
2021/12/11 10:17:39;;;;;;;20.90;13.23;;;;;;;;;;5127293;27;20025;-70
2021/12/11 10:20:11;;;;;;;22.60;13.50;;;;;;;;;;5114918;27;20026;-68
2021/12/11 10:22:37;;;;;;;23.20;14.57;;;;;;;;;;5132371;27;20035;-69
2021/12/11 10:25:04;;;;;;;25.70;14.97;;;;;;;;;;5133120;27;20054;-67
2021/12/11 10:27:30;;;;;;;26.13;15.73;;;;;;;;;;5115006;27;20033;-67
2021/12/11 10:29:56;;;;;;;26.27;16.07;;;;;;;;;;5125938;27;20467;-67
2021/12/11 10:32:24;;;;;;;26.20;15.90;;;;;;;;;;5107790;27;20073;-68
2021/12/11 10:34:51;;;;;;;40.37;21.17;;;;;;;;;;5131985;27;20479;-68
2021/12/11 10:37:18;;;;;;;40.93;19.93;;;;;;;;;;5114798;27;20026;-68
2021/12/11 10:39:46;;;;;;;43.87;20.50;;;;;;;;;;5132584;27;20019;-68
2021/12/11 10:42:11;;;;;;;38.30;20.87;;;;;;;;;;5131150;27;20015;-67
2021/12/11 10:44:39;;;;;;;40.30;19.70;;;;;;;;;;5132021;27;20015;-68
2021/12/11 10:47:07;;;;;;;37.57;19.37;;;;;;;;;;5114442;27;20026;-68
2021/12/11 10:49:33;;;;;;;36.60;17.37;;;;;;;;;;5113872;27;20596;-67
2021/12/11 10:52:01;;;;;;;37.77;19.03;;;;;;;;;;5132836;27;20102;-67
2021/12/11 10:54:26;;;;;;;38.77;19.33;;;;;;;;;;5114117;27;20055;-66
2021/12/11 10:56:52;;;;;;;46.80;21.03;;;;;;;;;;5113523;27;20483;-65
2021/12/11 10:59:21;;;;;;;36.07;18.73;;;;;;;;;;5109670;27;20418;-65
2021/12/11 11:01:49;;;;;;;39.73;20.70;;;;;;;;;;5108804;27;20076;-66
2021/12/11 11:04:17;;;;;;;43.60;21.17;;;;;;;;;;5131927;27;20121;-66
2021/12/11 11:06:45;;;;;;;43.23;21.93;;;;;;;;;;5113907;27;20479;-66
2021/12/11 11:09:11;;;;;;;40.50;20.53;;;;;;;;;;5113063;27;20031;-66
2021/12/11 11:11:37;;;;;;;39.70;20.80;;;;;;;;;;5132792;27;20015;-66
2021/12/11 11:14:04;;;;;;;38.67;19.63;;;;;;;;;;5114232;28;20031;-66
2021/12/11 11:16:30;;;;;;;44.53;21.50;;;;;;;;;;5132058;27;20011;-66
2021/12/11 11:18:56;;;;;;;37.73;20.07;;;;;;;;;;5131253;27;20094;-66
2021/12/11 11:21:27;;;;;;;44.10;22.20;;;;;;;;;;5113251;27;20142;-66
2021/12/11 11:23:53;;;;;;;44.60;22.13;;;;;;;;;;5113509;28;20506;-64
2021/12/11 11:26:21;;;;;;;50.23;21.33;;;;;;;;;;5131481;27;20429;-65
2021/12/11 11:28:46;;;;;;;44.20;23.13;;;;;;;;;;5129196;27;20489;-67
2021/12/11 11:31:14;;;;;;;47.13;22.47;;;;;;;;;;5135011;27;20023;-64
2021/12/11 11:33:41;;;;;;;45.00;21.90;;;;;;;;;;5136393;27;20027;-66
2021/12/11 11:36:08;;;;;;;38.93;21.90;;;;;;;;;;5131993;28;20014;-69
2021/12/11 11:38:34;;;;;;;46.50;23.97;;;;;;;;;;5115182;28;20042;-65
2021/12/11 11:41:05;;;;;;;46.30;21.63;;;;;;;;;;5113124;28;20488;-69
2021/12/11 11:43:30;;;;;;;41.40;20.13;;;;;;;;;;5131586;28;20023;-68
2021/12/11 11:45:56;;;;;;;43.83;22.40;;;;;;;;;;5132003;27;20019;-67
2021/12/11 11:48:27;;;;;;;43.93;23.60;;;;;;;;;;5113251;28;20115;-68
2021/12/11 11:50:53;;;;;;;45.67;22.70;;;;;;;;;;5112956;27;20340;-68
2021/12/11 11:53:24;;;;;;;46.73;22.80;;;;;;;;;;5113497;28;20015;-68
2021/12/11 11:55:50;;;;;;;49.87;23.77;;;;;;;;;;5131892;28;20067;-68
2021/12/11 11:58:16;;;;;;;45.73;23.83;;;;;;;;;;5112348;28;20023;-68
2021/12/11 12:00:44;;;;;;;44.43;21.57;;;;;;;;;;5091012;28;20219;-68
2021/12/11 12:03:11;;;;;;;46.30;22.60;;;;;;;;;;5111444;28;20107;-69
2021/12/11 12:05:37;;;;;;;43.97;23.17;;;;;;;;;;5113015;28;20019;-68
2021/12/11 12:08:06;;;;;;;44.90;22.77;;;;;;;;;;5112579;28;20076;-68
2021/12/11 12:10:31;;;;;;;42.20;22.07;;;;;;;;;;5126827;28;20028;-69
2021/12/11 12:12:57;;;;;;;47.33;22.40;;;;;;;;;;5112375;28;20027;-69
2021/12/11 12:15:25;;;;;;;40.80;21.03;;;;;;;;;;5127126;28;20029;-69
2021/12/11 12:17:51;;;;;;;42.33;21.13;;;;;;;;;;5131195;28;20023;-68
2021/12/11 12:20:16;;;;;;;38.10;20.43;;;;;;;;;;5087280;28;20033;-69
2021/12/11 12:22:44;;;;;;;40.77;21.50;;;;;;;;;;5113154;28;20030;-69
2021/12/11 12:25:09;;;;;;;35.20;20.50;;;;;;;;;;5131190;28;20035;-68
2021/12/11 12:27:35;;;;;;;41.00;21.03;;;;;;;;;;5132782;27;20022;-68
2021/12/11 12:30:03;;;;;;;37.97;21.70;;;;;;;;;;5116870;27;20031;-68
2021/12/11 12:32:30;;;;;;;40.83;22.57;;;;;;;;;;5114881;27;20024;-68
2021/12/11 12:34:57;;;;;;;40.33;21.60;;;;;;;;;;5117679;27;20055;-68
2021/12/11 12:37:23;;;;;;;39.27;21.80;;;;;;;;;;5132677;27;20023;-68
2021/12/11 12:39:50;;;;;;;47.30;24.53;;;;;;;;;;5117486;27;20030;-69
2021/12/11 12:42:22;;;;;;;46.33;24.43;;;;;;;;;;5116483;27;20023;-69
2021/12/11 12:44:49;;;;;;;44.13;24.07;;;;;;;;;;5131543;27;20030;-69
2021/12/11 12:47:17;;;;;;;42.43;23.40;;;;;;;;;;5115704;27;20156;-68
2021/12/11 12:49:47;;;;;;;46.70;24.33;;;;;;;;;;5115406;27;20038;-68
2021/12/11 12:52:16;;;;;;;40.50;22.53;;;;;;;;;;5116044;27;20130;-68
2021/12/11 12:54:41;;;;;;;38.93;21.73;;;;;;;;;;5132342;27;20031;-68
2021/12/11 12:57:14;;;;;;;45.37;23.57;;;;;;;;;;5116534;27;20164;-68
2021/12/11 12:59:43;;;;;;;42.17;22.53;;;;;;;;;;5130576;27;20015;-68
2021/12/11 13:02:10;;;;;;;40.23;23.43;;;;;;;;;;5135942;27;20050;-68
2021/12/11 13:04:42;;;;;;;38.87;22.77;;;;;;;;;;5145109;27;20031;-68
2021/12/11 13:07:11;;;;;;;37.30;21.53;;;;;;;;;;5116347;27;20023;-68
2021/12/11 13:09:42;;;;;;;36.23;20.83;;;;;;;;;;5134518;27;20075;-67
2021/12/11 13:12:15;;;;;;;36.00;20.90;;;;;;;;;;5133883;27;20027;-68
2021/12/11 13:14:41;;;;;;;34.87;20.73;;;;;;;;;;5134408;27;20028;-68
2021/12/11 13:17:17;;;;;;;32.10;19.80;;;;;;;;;;5115257;27;20455;-68
2021/12/11 13:19:46;;;;;;;36.40;21.83;;;;;;;;;;5134169;27;20022;-68
2021/12/11 13:22:16;;;;;;;35.53;21.70;;;;;;;;;;5133567;27;20065;-68
2021/12/11 13:24:48;;;;;;;37.37;22.60;;;;;;;;;;5115527;27;20076;-68
2021/12/11 13:27:13;;;;;;;36.30;22.17;;;;;;;;;;5133309;27;20027;-68
2021/12/11 13:29:40;;;;;;;34.43;20.43;;;;;;;;;;5099767;27;20387;-68
2021/12/11 13:32:17;;;;;;;33.57;19.63;;;;;;;;;;5112333;27;20034;-68
2021/12/11 13:34:43;;;;;;;33.90;20.70;;;;;;;;;;5133860;27;20060;-68
2021/12/11 13:37:10;;;;;;;35.47;21.13;;;;;;;;;;5125331;27;20033;-69
2021/12/11 13:39:36;;;;;;;37.77;22.97;;;;;;;;;;5133476;27;20103;-69
2021/12/11 13:42:04;;;;;;;31.73;20.63;;;;;;;;;;5134358;27;20465;-69
2021/12/11 13:44:31;;;;;;;34.87;21.23;;;;;;;;;;5133032;27;20027;-69
2021/12/11 13:46:58;;;;;;;32.40;19.47;;;;;;;;;;5129099;27;20391;-69
2021/12/11 13:49:23;;;;;;;34.90;21.10;;;;;;;;;;5133233;27;20126;-68
2021/12/11 13:51:48;;;;;;;34.90;20.73;;;;;;;;;;5098367;27;20232;-68
2021/12/11 13:54:14;;;;;;;36.03;20.77;;;;;;;;;;5133420;27;20365;-68
2021/12/11 13:56:44;;;;;;;33.60;20.37;;;;;;;;;;5115227;27;20079;-68
2021/12/11 13:59:10;;;;;;;34.00;20.60;;;;;;;;;;5129148;27;20596;-68
2021/12/11 14:01:36;;;;;;;33.83;20.53;;;;;;;;;;5125593;27;20018;-68
2021/12/11 14:04:03;;;;;;;38.93;22.97;;;;;;;;;;5118765;27;20063;-69
2021/12/11 14:06:28;;;;;;;37.57;22.70;;;;;;;;;;5133036;27;20023;-67
2021/12/11 14:08:59;;;;;;;35.33;21.47;;;;;;;;;;5115076;27;20105;-67
2021/12/11 14:11:25;;;;;;;35.77;21.67;;;;;;;;;;5132543;27;20056;-67
2021/12/11 14:13:50;;;;;;;33.30;19.50;;;;;;;;;;5130315;27;20027;-67
2021/12/11 14:16:16;;;;;;;35.73;21.83;;;;;;;;;;5113273;27;20098;-68
2021/12/11 14:18:46;;;;;;;34.70;20.70;;;;;;;;;;5115351;27;20015;-68
2021/12/11 14:21:11;;;;;;;33.53;20.87;;;;;;;;;;5114354;27;20096;-68
2021/12/11 14:23:38;;;;;;;35.40;21.73;;;;;;;;;;5114077;27;20052;-68
2021/12/11 14:26:05;;;;;;;34.87;21.63;;;;;;;;;;5131488;27;20027;-68
2021/12/11 14:28:31;;;;;;;34.57;21.23;;;;;;;;;;5132030;27;20027;-68
2021/12/11 14:30:59;;;;;;;37.53;23.40;;;;;;;;;;5128674;27;20015;-68
2021/12/11 14:33:24;;;;;;;33.93;20.93;;;;;;;;;;5133079;27;20381;-67
2021/12/11 14:35:50;;;;;;;36.23;21.93;;;;;;;;;;5132986;27;20538;-68
2021/12/11 14:38:19;;;;;;;38.20;22.23;;;;;;;;;;5113778;27;20471;-67